Time;durP1;ratioP1;P1;durP2;ratioP2;P2;SDS_P1;SDS_P2;PMS_P1;PMS_P2;Temp;Humidity;BMP_temperature;BMP_pressure;BME280_temperature;BME280_humidity;BME280_pressure;Samples;Min_cycle;Max_cycle;Signal;HPM_P1;HPM_P2
2021/08/10 00:02:26;;;;;;;5.77;4.20;;;;;;;25.43;52.28;101401.63;4992133;28;20182;-66
2021/08/10 00:04:52;;;;;;;7.77;4.13;;;;;;;24.74;52.47;101303.34;5010445;28;20178;-67
2021/08/10 00:07:17;;;;;;;8.93;4.73;;;;;;;24.87;52.29;101303.63;5010220;28;20232;-66
2021/08/10 00:09:43;;;;;;;8.60;4.30;;;;;;;25.60;52.33;101400.34;5011429;28;20574;-66
2021/08/10 00:12:10;;;;;;;7.47;4.80;;;;;;;25.67;52.03;101393.34;5010984;28;20192;-66
2021/08/10 00:14:35;;;;;;;8.37;4.60;;;;;;;25.71;52.10;101399.53;5011802;28;20231;-66
2021/08/10 00:17:02;;;;;;;7.57;4.40;;;;;;;25.76;51.95;101396.69;5010418;28;20243;-66
2021/08/10 00:19:28;;;;;;;7.00;4.37;;;;;;;25.84;51.68;101392.00;5011569;28;20216;-66
2021/08/10 00:21:53;;;;;;;8.63;5.00;;;;;;;25.78;51.98;101396.16;4997445;28;20194;-66
2021/08/10 00:24:18;;;;;;;5.50;4.40;;;;;;;25.85;51.83;101392.81;4992114;28;20190;-66
2021/08/10 00:26:44;;;;;;;11.50;4.80;;;;;;;25.49;52.01;101349.25;4998028;28;20560;-68
2021/08/10 00:29:10;;;;;;;7.77;4.60;;;;;;;25.68;52.44;101398.50;4991575;28;20185;-66
2021/08/10 00:31:35;;;;;;;7.37;4.80;;;;;;;25.72;52.44;101390.50;5006869;28;20177;-66
2021/08/10 00:34:00;;;;;;;12.10;5.00;;;;;;;25.67;51.90;101365.72;5011246;28;20568;-66
2021/08/10 00:36:26;;;;;;;9.30;5.10;;;;;;;25.86;51.69;101380.13;5010189;28;20213;-67
2021/08/10 00:38:52;;;;;;;8.80;4.90;;;;;;;25.86;51.89;101383.78;4997377;28;20187;-66
2021/08/10 00:41:17;;;;;;;9.53;4.50;;;;;;;25.89;51.79;101373.44;4991501;28;20193;-66
2021/08/10 00:43:45;;;;;;;8.40;4.87;;;;;;;25.90;51.70;101389.19;4991005;28;20186;-66
2021/08/10 00:46:13;;;;;;;8.47;4.43;;;;;;;25.78;52.28;101387.63;4991047;28;20174;-66
2021/08/10 00:48:39;;;;;;;11.13;4.90;;;;;;;25.82;52.08;101380.41;4991237;28;20206;-66
2021/08/10 00:51:07;;;;;;;10.83;5.20;;;;;;;25.79;51.55;101361.56;4991052;28;20189;-66
2021/08/10 00:53:33;;;;;;;13.37;5.33;;;;;;;25.75;52.00;101363.91;5001487;28;20178;-68
2021/08/10 00:55:58;;;;;;;8.57;5.27;;;;;;;25.31;51.88;101290.22;5010635;28;20181;-66
2021/08/10 00:58:25;;;;;;;14.83;6.30;;;;;;;25.76;51.59;101379.66;5010414;28;20190;-66
2021/08/10 01:00:50;;;;;;;10.43;4.87;;;;;;;25.70;50.75;101384.56;5011034;28;20265;-66
2021/08/10 01:03:16;;;;;;;10.37;5.00;;;;;;;25.49;50.56;101357.00;5009633;28;20714;-66
2021/08/10 01:05:47;;;;;;;7.13;5.10;;;;;;;24.88;51.15;101262.63;5010540;28;20220;-66
2021/08/10 01:08:25;;;;;;;7.57;4.40;;;;;;;25.67;51.17;101384.81;5003712;28;20654;-66
2021/08/10 01:11:07;;;;;;;10.63;4.83;;;;;;;25.62;50.73;101377.88;4996831;28;20671;-66
2021/08/10 01:13:38;;;;;;;11.53;5.20;;;;;;;25.62;50.48;101377.88;5007862;28;20190;-66
2021/08/10 01:16:14;;;;;;;8.60;4.47;;;;;;;25.62;50.49;101377.09;4990000;28;20680;-68
2021/08/10 01:18:50;;;;;;;7.77;4.67;;;;;;;24.94;50.47;101269.06;4991242;28;20261;-66
2021/08/10 01:21:24;;;;;;;13.43;5.07;;;;;;;25.66;50.88;101386.13;5004586;28;20647;-66
2021/08/10 01:24:06;;;;;;;11.47;5.60;;;;;;;25.61;51.70;101396.19;5010801;28;20165;-66
2021/08/10 01:26:45;;;;;;;12.67;5.30;;;;;;;25.53;52.05;101406.53;4981584;28;20189;-66
2021/08/10 01:29:28;;;;;;;12.37;5.37;;;;;;;25.49;52.31;101394.66;4996521;28;20205;-66
2021/08/10 01:31:57;;;;;;;11.37;5.13;;;;;;;25.57;52.35;101406.25;5010669;28;20188;-66
2021/08/10 01:34:26;;;;;;;9.13;5.10;;;;;;;25.36;52.49;101404.97;5000485;28;20696;-66
2021/08/10 01:36:59;;;;;;;12.53;5.10;;;;;;;25.35;52.38;101411.94;4990244;28;20614;-66
2021/08/10 01:39:27;;;;;;;10.20;5.10;;;;;;;25.30;52.55;101407.84;5005703;28;20197;-68
2021/08/10 01:41:54;;;;;;;9.60;5.30;;;;;;;25.26;52.73;101410.16;4992824;28;20638;-66
2021/08/10 01:44:25;;;;;;;9.60;4.70;;;;;;;25.25;52.92;101416.28;4990913;28;20209;-68
2021/08/10 01:46:52;;;;;;;9.40;4.70;;;;;;;25.25;52.79;101421.97;4993073;28;20563;-66
2021/08/10 01:49:18;;;;;;;7.93;4.90;;;;;;;25.31;52.75;101425.59;5009324;28;20181;-66
2021/08/10 01:51:45;;;;;;;9.67;4.73;;;;;;;24.89;52.94;101346.41;4995921;28;20205;-66
2021/08/10 01:54:13;;;;;;;7.83;5.10;;;;;;;25.36;52.97;101405.75;5010150;28;20202;-66
2021/08/10 01:56:40;;;;;;;9.43;5.07;;;;;;;25.31;53.29;101402.91;4999904;28;20210;-66
2021/08/10 01:59:07;;;;;;;9.43;5.03;;;;;;;25.34;53.52;101402.66;4990539;28;20181;-66
2021/08/10 02:01:35;;;;;;;8.07;5.10;;;;;;;25.39;53.42;101410.38;4999539;28;20269;-68
2021/08/10 02:04:03;;;;;;;8.03;4.67;;;;;;;25.36;53.05;101397.25;4990335;28;20178;-68
2021/08/10 02:06:29;;;;;;;13.27;5.67;;;;;;;25.31;52.97;101389.50;5008089;28;20217;-67
2021/08/10 02:08:57;;;;;;;19.40;5.40;;;;;;;25.49;52.88;101408.09;5028387;28;20701;-68
2021/08/10 02:11:25;;;;;;;11.93;5.40;;;;;;;25.47;52.75;101405.75;5028241;28;20187;-68
2021/08/10 02:13:52;;;;;;;14.77;5.67;;;;;;;25.45;52.71;101405.50;5028874;28;20207;-68
2021/08/10 02:16:18;;;;;;;8.70;4.93;;;;;;;25.44;52.80;101394.66;5028690;28;20678;-65
2021/08/10 02:18:47;;;;;;;10.03;5.30;;;;;;;25.40;52.86;101417.63;5024074;28;20239;-67
2021/08/10 02:21:23;;;;;;;11.80;5.07;;;;;;;25.28;53.22;101410.38;5009865;28;20186;-68
2021/08/10 02:23:50;;;;;;;9.70;4.77;;;;;;;24.33;54.00;101283.19;5010107;28;20172;-68
2021/08/10 02:26:18;;;;;;;16.40;5.53;;;;;;;24.49;54.03;101310.75;5009149;28;20624;-68
2021/08/10 02:28:44;;;;;;;14.30;5.50;;;;;;;25.06;54.08;101393.34;5009980;28;20189;-68
2021/08/10 02:31:11;;;;;;;12.40;5.37;;;;;;;24.93;54.52;101389.47;5010044;28;20235;-68
2021/08/10 02:33:38;;;;;;;13.47;5.47;;;;;;;25.07;54.47;101409.06;5016177;28;20178;-65
2021/08/10 02:36:04;;;;;;;8.83;4.97;;;;;;;25.05;54.56;101419.38;5032550;28;20185;-68
2021/08/10 02:38:32;;;;;;;11.23;5.40;;;;;;;25.05;54.50;101425.81;5014408;28;20177;-68
2021/08/10 02:40:57;;;;;;;11.23;5.43;;;;;;;24.86;55.26;101435.31;5015286;28;20190;-68
2021/08/10 02:43:28;;;;;;;16.03;5.77;;;;;;;24.92;56.17;101430.44;5033462;28;20177;-65
2021/08/10 02:45:54;;;;;;;26.63;7.27;;;;;;;24.96;59.07;101420.38;5025990;28;20186;-68
2021/08/10 02:48:20;;;;;;;16.73;6.30;;;;;;;24.92;60.51;101414.19;5013686;28;20612;-68
2021/08/10 02:50:46;;;;;;;20.30;6.90;;;;;;;24.78;61.52;101423.69;5021387;28;20239;-68
2021/08/10 02:53:12;;;;;;;16.80;6.13;;;;;;;24.45;61.79;101378.22;5032816;28;20230;-65
2021/08/10 02:55:43;;;;;;;15.33;6.37;;;;;;;24.77;62.44;101436.31;5020082;28;20245;-68
2021/08/10 02:58:20;;;;;;;17.70;6.80;;;;;;;24.73;63.46;101432.19;4995823;28;20189;-68
2021/08/10 03:01:06;;;;;;;14.60;6.40;;;;;;;24.75;63.60;101433.22;5028830;28;20259;-68
2021/08/10 03:03:33;;;;;;;12.20;6.17;;;;;;;24.75;63.21;101443.78;5013662;28;20192;-68
2021/08/10 03:06:01;;;;;;;14.40;6.00;;;;;;;24.74;62.36;101443.03;5012503;28;20181;-68
2021/08/10 03:08:30;;;;;;;13.43;5.87;;;;;;;24.65;63.58;101454.59;5000619;28;20267;-68
2021/08/10 03:10:57;;;;;;;13.43;6.37;;;;;;;24.44;64.95;101467.34;5014449;28;20193;-65
2021/08/10 03:13:29;;;;;;;15.33;6.23;;;;;;;24.40;64.47;101466.81;5019785;28;20181;-68
2021/08/10 03:15:57;;;;;;;11.37;6.00;;;;;;;24.37;65.45;101484.06;5011923;28;20189;-68
2021/08/10 03:18:28;;;;;;;11.90;6.20;;;;;;;24.13;65.33;101478.00;5025516;28;20187;-68
2021/08/10 03:20:57;;;;;;;9.27;5.37;;;;;;;24.17;63.83;101479.31;5032955;28;20234;-68
2021/08/10 03:23:24;;;;;;;14.33;6.23;;;;;;;24.12;63.49;101479.28;5014974;28;20181;-68
2021/08/10 03:25:51;;;;;;;10.73;6.40;;;;;;;24.18;64.54;101480.06;5011958;28;20189;-67
2021/08/10 03:28:18;;;;;;;12.50;6.13;;;;;;;24.18;64.83;101486.53;5032420;28;20211;-67
2021/08/10 03:30:45;;;;;;;15.20;6.40;;;;;;;24.14;65.00;101483.16;5031410;28;20188;-65
2021/08/10 03:33:11;;;;;;;10.70;6.17;;;;;;;24.02;64.94;101478.72;5032066;28;20569;-68
2021/08/10 03:35:38;;;;;;;7.83;6.00;;;;;;;23.94;63.15;101486.09;5012563;28;20501;-65
2021/08/10 03:38:04;;;;;;;12.33;7.00;;;;;;;23.74;64.18;101474.84;5012673;28;20197;-68
2021/08/10 03:40:30;;;;;;;14.00;6.50;;;;;;;23.78;63.70;101488.78;5021151;28;20189;-67
2021/08/10 03:42:57;;;;;;;10.90;6.20;;;;;;;23.56;63.26;101452.59;5031377;28;20625;-68
2021/08/10 03:45:25;;;;;;;11.60;6.30;;;;;;;23.68;62.97;101474.03;5018984;28;20260;-65
2021/08/10 03:47:51;;;;;;;13.73;6.70;;;;;;;23.77;63.00;101481.56;5012278;28;20178;-67
2021/08/10 03:50:19;;;;;;;8.40;6.40;;;;;;;23.15;62.39;101396.66;5018383;28;20182;-67
2021/08/10 03:52:48;;;;;;;13.27;6.90;;;;;;;23.78;62.27;101480.28;5012133;28;20188;-68
2021/08/10 03:55:13;;;;;;;15.80;7.17;;;;;;;23.79;62.41;101484.69;5030435;28;20193;-67
2021/08/10 03:57:40;;;;;;;15.17;6.93;;;;;;;23.80;61.34;101494.72;5028910;28;20188;-68
2021/08/10 04:00:07;;;;;;;15.43;6.83;;;;;;;23.77;61.11;101473.88;5012339;28;20256;-68
2021/08/10 04:02:34;;;;;;;12.67;6.03;;;;;;;23.67;61.87;101488.69;5016377;28;20738;-67
2021/08/10 04:05:00;;;;;;;17.10;6.53;;;;;;;22.71;61.87;101346.16;5031821;28;20236;-68
2021/08/10 04:07:26;;;;;;;14.77;6.07;;;;;;;23.61;62.19;101476.56;5022284;28;20233;-67
2021/08/10 04:09:52;;;;;;;12.50;6.30;;;;;;;23.05;62.18;101400.94;5021540;28;20260;-67
2021/08/10 04:12:20;;;;;;;14.03;7.53;;;;;;;23.62;62.75;101493.03;5030397;28;20272;-68
2021/08/10 04:14:46;;;;;;;14.27;6.47;;;;;;;23.29;61.65;101421.25;5018671;28;20205;-67
2021/08/10 04:17:12;;;;;;;25.00;7.27;;;;;;;23.77;61.46;101492.88;5023950;28;20268;-67
2021/08/10 04:19:48;;;;;;;14.67;6.43;;;;;;;23.75;62.13;101492.63;5031718;28;20664;-68
2021/08/10 04:22:14;;;;;;;15.30;6.83;;;;;;;23.63;61.91;101505.91;5013635;28;20173;-68
2021/08/10 04:24:39;;;;;;;15.33;7.20;;;;;;;23.63;61.74;101503.06;5010217;28;20726;-69
2021/08/10 04:27:05;;;;;;;18.23;6.60;;;;;;;23.74;61.91;101497.50;5014091;28;20186;-69
2021/08/10 04:29:30;;;;;;;19.00;6.73;;;;;;;23.75;61.44;101482.06;5026824;28;20570;-69
2021/08/10 04:31:56;;;;;;;16.00;7.40;;;;;;;23.88;60.30;101498.63;5011229;28;20181;-69
2021/08/10 04:34:21;;;;;;;13.53;7.17;;;;;;;23.90;59.63;101491.22;5012190;28;20711;-69
2021/08/10 04:36:47;;;;;;;15.10;7.37;;;;;;;23.96;58.94;101494.09;5010250;28;20173;-69
2021/08/10 04:39:12;;;;;;;13.47;7.30;;;;;;;24.07;59.35;101500.63;5019588;28;20193;-69
2021/08/10 04:41:38;;;;;;;17.10;10.90;;;;;;;24.18;59.03;101505.56;5030902;28;20242;-69
2021/08/10 04:44:04;;;;;;;11.90;8.87;;;;;;;24.24;59.03;101510.00;5018323;28;20265;-69
2021/08/10 04:46:29;;;;;;;19.60;9.60;;;;;;;24.32;59.46;101513.91;5010154;28;20584;-69
2021/08/10 04:48:56;;;;;;;14.30;8.03;;;;;;;24.36;59.67;101517.25;5025273;28;20185;-69
2021/08/10 04:51:21;;;;;;;17.53;7.80;;;;;;;23.61;59.86;101397.34;5018860;28;20722;-69
2021/08/10 04:53:47;;;;;;;12.40;7.77;;;;;;;24.12;58.55;101496.25;5029373;28;20462;-69
2021/08/10 04:56:12;;;;;;;18.07;8.20;;;;;;;23.61;58.13;101397.34;5028337;28;20192;-69
2021/08/10 04:58:38;;;;;;;16.57;7.90;;;;;;;24.62;57.61;101534.94;5030404;28;20208;-69
2021/08/10 05:01:05;;;;;;;16.60;7.40;;;;;;;24.69;58.59;101530.88;5029175;28;20200;-69
2021/08/10 05:03:30;;;;;;;17.53;8.17;;;;;;;24.68;59.05;101515.94;5011379;28;20337;-69
2021/08/10 05:05:56;;;;;;;17.00;7.67;;;;;;;24.88;57.80;101546.91;5010293;28;20268;-69
2021/08/10 05:08:22;;;;;;;12.37;7.10;;;;;;;24.70;58.67;101544.53;4991820;28;20234;-67
2021/08/10 05:10:49;;;;;;;11.60;7.50;;;;;;;24.71;59.08;101548.91;4998259;28;20213;-69
2021/08/10 05:13:15;;;;;;;25.80;7.60;;;;;;;24.86;59.34;101526.03;4990208;28;20194;-69
2021/08/10 05:15:40;;;;;;;16.90;7.77;;;;;;;25.06;58.92;101552.16;4989303;28;20814;-69
2021/08/10 05:18:06;;;;;;;13.57;7.30;;;;;;;24.93;57.97;101523.47;4990647;28;20233;-69
2021/08/10 05:20:32;;;;;;;15.33;8.00;;;;;;;25.20;58.49;101554.00;4990412;28;20751;-69
2021/08/10 05:22:57;;;;;;;12.70;7.17;;;;;;;24.67;58.27;101452.00;4990378;28;20229;-69
2021/08/10 05:25:23;;;;;;;13.10;6.40;;;;;;;25.49;57.99;101562.09;4989034;28;20619;-69
2021/08/10 05:27:48;;;;;;;16.07;6.77;;;;;;;25.64;57.50;101559.78;4989789;28;20179;-69
2021/08/10 05:30:14;;;;;;;13.30;6.10;;;;;;;25.74;56.61;101549.72;4990432;28;20185;-67
2021/08/10 05:32:41;;;;;;;11.50;6.53;;;;;;;25.88;56.23;101556.44;4989719;28;20478;-67
2021/08/10 05:35:07;;;;;;;8.80;6.40;;;;;;;26.01;56.25;101551.84;4990206;28;20214;-69
2021/08/10 05:37:33;;;;;;;12.47;6.70;;;;;;;25.73;54.31;101493.47;4988942;28;20277;-69
2021/08/10 05:39:58;;;;;;;12.93;6.47;;;;;;;26.25;55.13;101557.00;4985425;28;20294;-69
2021/08/10 05:42:24;;;;;;;10.10;6.20;;;;;;;26.21;55.04;101531.66;4971084;28;20681;-68
2021/08/10 05:44:49;;;;;;;9.60;6.87;;;;;;;26.43;54.95;101543.00;4964573;28;20186;-69
2021/08/10 05:47:15;;;;;;;14.70;6.90;;;;;;;26.57;54.96;101547.63;4990164;28;20261;-67
2021/08/10 05:49:40;;;;;;;11.10;6.50;;;;;;;26.68;54.27;101552.50;4990055;28;20186;-69
2021/08/10 05:52:08;;;;;;;17.07;7.00;;;;;;;26.76;54.01;101554.28;4989832;28;20605;-68
2021/08/10 05:54:34;;;;;;;60.77;10.30;;;;;;;26.86;53.98;101547.00;4990549;28;20202;-70
2021/08/10 05:56:59;;;;;;;13.13;7.20;;;;;;;27.01;53.06;101549.53;5002257;28;20192;-69
2021/08/10 05:59:25;;;;;;;12.60;7.00;;;;;;;27.07;52.18;101561.66;5009759;28;20174;-69
2021/08/10 06:01:50;;;;;;;14.27;6.37;;;;;;;27.05;52.42;101553.66;5004359;28;20696;-69
2021/08/10 06:04:16;;;;;;;13.67;6.90;;;;;;;27.27;52.44;101559.25;4995975;28;20223;-69
2021/08/10 06:06:41;;;;;;;15.83;6.97;;;;;;;27.45;51.74;101572.09;4994770;28;20229;-69
2021/08/10 06:09:07;;;;;;;9.97;6.43;;;;;;;27.40;52.86;101565.13;5028093;28;20260;-68
2021/08/10 06:11:33;;;;;;;12.67;7.40;;;;;;;27.47;51.83;101549.53;5013462;28;20216;-69
2021/08/10 06:13:59;;;;;;;11.90;7.00;;;;;;;27.81;52.04;101567.97;5027076;28;20212;-69
2021/08/10 06:16:25;;;;;;;10.40;6.80;;;;;;;27.40;51.92;101507.41;5020209;28;20671;-69
2021/08/10 06:18:50;;;;;;;11.03;7.23;;;;;;;27.38;52.00;101493.72;5033477;28;20687;-69
2021/08/10 06:21:16;;;;;;;15.52;8.23;;;;;;;27.99;50.43;101568.06;5019766;28;20189;-69
2021/08/10 06:23:42;;;;;;;11.97;7.80;;;;;;;28.08;49.97;101572.66;5013545;28;20216;-69
2021/08/10 06:26:07;;;;;;;12.60;8.15;;;;;;;28.18;50.82;101588.91;5013375;28;20200;-69
2021/08/10 06:28:33;;;;;;;14.07;8.35;;;;;;;28.28;50.07;101586.47;5021035;28;20573;-69
2021/08/10 06:30:59;;;;;;;13.43;8.43;;;;;;;28.45;49.70;101584.28;5033191;28;20177;-69
2021/08/10 06:33:24;;;;;;;13.30;8.07;;;;;;;28.54;48.89;101593.25;5032079;28;20615;-69
2021/08/10 06:35:50;;;;;;;18.70;8.90;;;;;;;28.65;50.39;101590.25;5018937;28;20201;-69
2021/08/10 06:38:15;;;;;;;13.40;8.55;;;;;;;28.82;51.18;101599.41;5002788;28;20225;-69
2021/08/10 06:40:41;;;;;;;12.50;8.40;;;;;;;29.00;50.21;101587.28;5022926;28;20196;-69
2021/08/10 06:43:08;;;;;;;13.65;9.35;;;;;;;29.16;49.94;101594.84;5019968;28;20561;-69
2021/08/10 06:45:34;;;;;;;12.60;7.75;;;;;;;29.32;51.40;101587.41;5013141;28;20189;-69
2021/08/10 06:47:59;;;;;;;17.38;11.20;;;;;;;29.38;47.81;101585.97;5013206;28;20182;-69
2021/08/10 06:50:25;;;;;;;21.90;11.88;;;;;;;28.75;47.21;101468.78;5012867;28;20651;-69
2021/08/10 06:52:50;;;;;;;15.30;9.77;;;;;;;29.46;46.57;101583.28;5022242;28;20189;-69
2021/08/10 06:55:16;;;;;;;16.17;10.13;;;;;;;29.18;46.83;101580.06;5032277;28;20204;-69
2021/08/10 06:57:41;;;;;;;17.77;10.30;;;;;;;29.11;47.38;101583.50;5016276;28;20189;-69
2021/08/10 07:00:07;;;;;;;16.75;9.82;;;;;;;29.15;47.60;101564.78;5012875;28;20185;-69
2021/08/10 07:02:33;;;;;;;17.27;10.77;;;;;;;28.98;47.40;101532.06;5012771;28;20269;-69
2021/08/10 07:04:58;;;;;;;15.20;10.30;;;;;;;29.31;47.41;101580.13;5022609;28;20185;-69
2021/08/10 07:07:25;;;;;;;20.98;11.80;;;;;;;28.84;47.17;101496.94;5031911;28;20383;-69
2021/08/10 07:09:50;;;;;;;19.40;11.60;;;;;;;29.49;46.07;101574.41;5020239;28;20627;-69
2021/08/10 07:12:16;;;;;;;9.60;7.53;;;;;;;29.38;45.80;101570.94;5023510;28;20188;-66
2021/08/10 07:14:41;;;;;;;12.55;7.43;;;;;;;29.27;45.43;101525.44;5020132;28;20205;-67
2021/08/10 07:17:07;;;;;;;13.68;8.77;;;;;;;29.63;43.36;101544.63;5013937;28;20194;-68
2021/08/10 07:19:32;;;;;;;14.75;8.93;;;;;;;30.00;43.81;101575.19;5010472;28;20627;-65
2021/08/10 07:21:58;;;;;;;17.30;9.57;;;;;;;30.03;43.40;101571.22;5009509;28;20192;-68
2021/08/10 07:24:23;;;;;;;12.35;9.45;;;;;;;30.07;42.98;101566.75;5011872;28;20177;-70
2021/08/10 07:26:49;;;;;;;17.30;9.57;;;;;;;30.16;42.95;101571.31;5011836;28;20272;-68
2021/08/10 07:29:15;;;;;;;15.48;9.45;;;;;;;30.22;43.11;101578.47;5011028;28;20244;-65
2021/08/10 07:31:40;;;;;;;10.93;8.63;;;;;;;30.40;42.56;101569.03;5011700;28;20177;-66
2021/08/10 07:34:06;;;;;;;11.07;8.65;;;;;;;30.29;41.70;101566.38;5022931;28;20635;-67
2021/08/10 07:36:31;;;;;;;12.20;8.02;;;;;;;30.41;42.09;101575.53;5015789;28;20185;-70
2021/08/10 07:38:57;;;;;;;10.13;7.75;;;;;;;30.16;41.22;101572.09;5016120;28;20189;-69
2021/08/10 07:41:22;;;;;;;11.85;7.88;;;;;;;29.93;42.64;101565.16;5022429;28;20181;-69
2021/08/10 07:43:48;;;;;;;15.20;7.63;;;;;;;29.88;43.47;101566.03;5031094;28;20184;-70
2021/08/10 07:46:13;;;;;;;9.57;7.57;;;;;;;30.07;42.99;101561.03;5030287;28;20195;-70
2021/08/10 07:48:39;;;;;;;13.98;7.80;;;;;;;29.62;42.97;101511.66;5030766;28;20272;-69
2021/08/10 07:51:04;;;;;;;9.40;7.30;;;;;;;29.91;43.41;101561.31;5008863;28;20557;-69
2021/08/10 07:53:30;;;;;;;12.52;7.60;;;;;;;29.86;43.30;101557.25;5010713;28;20182;-70
2021/08/10 07:55:55;;;;;;;9.93;7.28;;;;;;;29.10;41.75;101431.47;5025350;28;20267;-70
2021/08/10 07:58:21;;;;;;;10.23;7.40;;;;;;;29.95;42.64;101547.47;5029324;28;20267;-70
2021/08/10 08:00:46;;;;;;;9.75;7.28;;;;;;;29.85;42.73;101544.28;5027001;28;20706;-70
2021/08/10 08:03:12;;;;;;;11.07;7.82;;;;;;;29.87;43.39;101538.78;5009907;28;20214;-70
2021/08/10 08:05:38;;;;;;;11.98;7.68;;;;;;;29.99;43.82;101548.69;5023025;28;20180;-69
2021/08/10 08:08:04;;;;;;;14.35;7.43;;;;;;;29.97;43.16;101542.75;5029134;28;20236;-70
2021/08/10 08:10:31;;;;;;;11.23;7.30;;;;;;;29.74;43.10;101487.28;5015036;28;20182;-69
2021/08/10 08:12:56;;;;;;;14.65;7.82;;;;;;;30.09;42.98;101543.34;5017448;28;20185;-70
2021/08/10 08:15:22;;;;;;;10.10;7.43;;;;;;;30.07;42.51;101538.16;5011679;28;20626;-70
2021/08/10 08:17:47;;;;;;;10.10;7.63;;;;;;;30.02;42.89;101527.59;5009520;28;20177;-70
2021/08/10 08:20:13;;;;;;;12.00;7.70;;;;;;;30.36;42.82;101547.81;5009558;28;20181;-70
2021/08/10 08:22:39;;;;;;;11.15;7.15;;;;;;;30.42;42.05;101548.47;5010340;28;20332;-70
2021/08/10 08:25:05;;;;;;;10.18;6.97;;;;;;;30.40;41.88;101531.84;5009825;28;20670;-70
2021/08/10 08:27:32;;;;;;;12.00;7.47;;;;;;;30.62;42.18;101542.88;5008938;28;20403;-70
2021/08/10 08:29:57;;;;;;;8.48;6.65;;;;;;;30.69;41.12;101525.06;5006543;28;20575;-70
2021/08/10 08:32:23;;;;;;;9.38;6.25;;;;;;;30.84;39.87;101538.78;5028323;28;20177;-70
2021/08/10 08:34:49;;;;;;;11.60;6.40;;;;;;;30.67;39.79;101496.25;5015060;28;20190;-70
2021/08/10 08:37:14;;;;;;;9.48;6.97;;;;;;;30.93;40.94;101538.34;5008841;28;20711;-70
2021/08/10 08:39:40;;;;;;;10.57;6.82;;;;;;;31.04;41.23;101532.38;4991735;28;20186;-70
2021/08/10 08:42:05;;;;;;;9.73;7.18;;;;;;;31.08;40.76;101535.69;5025145;28;20264;-70
2021/08/10 08:44:36;;;;;;;8.75;7.03;;;;;;;31.25;40.75;101533.22;5028737;28;20209;-70
2021/08/10 08:47:07;;;;;;;10.57;6.22;;;;;;;31.35;39.66;101528.56;5028765;28;20162;-70
2021/08/10 08:49:34;;;;;;;10.57;6.68;;;;;;;31.29;38.66;101499.31;5028550;28;20192;-70
2021/08/10 08:52:01;;;;;;;10.63;7.00;;;;;;;31.64;39.10;101521.63;5028414;28;20467;-70
2021/08/10 08:54:28;;;;;;;13.40;7.05;;;;;;;31.60;39.63;101521.19;5013698;28;20196;-70
2021/08/10 08:56:54;;;;;;;10.35;7.25;;;;;;;31.09;38.26;101440.66;5011855;28;20593;-69
2021/08/10 08:59:21;;;;;;;14.73;7.80;;;;;;;31.08;39.32;101429.75;5008604;28;20300;-68
2021/08/10 09:01:49;;;;;;;11.68;6.80;;;;;;;31.72;39.67;101525.31;5008817;28;20651;-69
2021/08/10 09:04:15;;;;;;;8.77;7.15;;;;;;;31.89;38.69;101528.59;5009246;28;20264;-70
2021/08/10 09:06:40;;;;;;;10.48;6.93;;;;;;;31.47;38.52;101433.22;5028617;28;20295;-70
2021/08/10 09:09:26;;;;;;;11.82;6.15;;;;;;;32.12;36.70;101515.97;5024795;28;20652;-70
2021/08/10 09:11:57;;;;;;;11.48;6.43;;;;;;;32.09;37.64;101517.09;5008530;28;20177;-70
2021/08/10 09:14:24;;;;;;;11.43;6.90;;;;;;;32.32;38.41;101514.41;5009128;28;20206;-70
2021/08/10 09:17:23;;;;;;;9.30;6.15;;;;;;;32.63;37.97;101513.25;5008286;28;20194;-69
2021/08/10 09:19:58;;;;;;;10.38;6.32;;;;;;;32.90;37.73;101511.69;4975120;28;20296;-70
2021/08/10 09:22:26;;;;;;;10.10;6.03;;;;;;;33.18;37.44;101506.66;5008345;28;20281;-70
2021/08/10 09:25:00;;;;;;;10.00;6.70;;;;;;;33.13;37.44;101469.47;5009024;28;20204;-70
2021/08/10 09:27:27;;;;;;;13.07;6.72;;;;;;;33.68;37.23;101502.94;5018166;28;20524;-70
2021/08/10 09:29:53;;;;;;;9.85;6.72;;;;;;;33.78;36.41;101489.56;5015439;28;20663;-70
2021/08/10 09:32:19;;;;;;;11.52;7.15;;;;;;;34.23;35.90;101495.28;5019900;28;20199;-70
2021/08/10 09:34:44;;;;;;;7.82;6.35;;;;;;;34.43;35.35;101496.41;5016784;28;20212;-70
2021/08/10 09:37:17;;;;;;;12.70;6.68;;;;;;;34.60;35.84;101496.56;5011661;28;20188;-70
2021/08/10 09:39:43;;;;;;;8.80;6.20;;;;;;;34.80;34.71;101490.56;5005605;28;20190;-70
2021/08/10 09:42:13;;;;;;;8.48;6.03;;;;;;;34.96;34.46;101476.88;5025306;28;20187;-70
2021/08/10 09:44:58;;;;;;;8.65;5.85;;;;;;;34.96;34.38;101483.38;5005805;28;20548;-70
2021/08/10 09:47:35;;;;;;;7.78;5.88;;;;;;;35.15;34.72;101480.78;5001794;28;20176;-70
2021/08/10 09:50:01;;;;;;;10.20;6.22;;;;;;;34.93;33.53;101438.50;5008170;28;20264;-70
2021/08/10 09:52:34;;;;;;;7.13;6.38;;;;;;;35.35;32.44;101478.97;5016672;28;20276;-70
2021/08/10 09:55:16;;;;;;;6.97;5.80;;;;;;;35.16;33.45;101459.28;5028327;28;20204;-70
2021/08/10 09:57:59;;;;;;;10.15;6.20;;;;;;;35.48;33.35;101467.16;4997598;28;20220;-70
2021/08/10 10:00:42;;;;;;;8.10;6.30;;;;;;;35.65;32.98;101464.34;5000392;28;20170;-70
2021/08/10 10:03:19;;;;;;;9.35;5.72;;;;;;;35.75;33.06;101460.25;5007704;28;20181;-70
2021/08/10 10:05:46;;;;;;;10.95;6.22;;;;;;;35.84;33.20;101465.38;5008451;28;20193;-70
2021/08/10 10:08:20;;;;;;;7.82;6.07;;;;;;;35.97;32.66;101461.38;5007914;28;20255;-70
2021/08/10 10:10:47;;;;;;;10.13;5.95;;;;;;;35.92;32.40;101433.53;5006141;28;20563;-70
2021/08/10 10:13:17;;;;;;;13.60;6.75;;;;;;;36.06;31.12;101449.97;5027224;28;20212;-70
2021/08/10 10:15:44;;;;;;;7.95;6.20;;;;;;;35.98;31.30;101457.16;5008591;28;20675;-70
2021/08/10 10:18:11;;;;;;;7.90;5.80;;;;;;;36.24;30.97;101448.63;5024041;28;20236;-70
2021/08/10 10:20:41;;;;;;;10.90;5.95;;;;;;;36.42;31.11;101443.63;5024408;28;20221;-70
2021/08/10 10:23:09;;;;;;;7.80;5.93;;;;;;;36.61;29.85;101446.69;5008447;28;20182;-69
2021/08/10 10:25:35;;;;;;;7.07;6.00;;;;;;;36.73;29.05;101442.69;5010940;28;20192;-69
2021/08/10 10:28:01;;;;;;;7.75;5.90;;;;;;;36.74;28.29;101447.09;5027606;28;20188;-70
2021/08/10 10:30:28;;;;;;;10.13;5.88;;;;;;;36.75;29.03;101436.34;5009829;28;20552;-70
2021/08/10 10:32:54;;;;;;;9.10;5.63;;;;;;;36.19;29.06;101336.34;5007682;28;20197;-70
2021/08/10 10:35:20;;;;;;;8.20;5.30;;;;;;;37.00;28.71;101443.47;5024618;28;20263;-70
2021/08/10 10:37:48;;;;;;;11.82;5.40;;;;;;;36.86;28.74;101435.78;5023091;28;20726;-70
2021/08/10 10:40:18;;;;;;;10.43;5.68;;;;;;;36.97;29.49;101432.34;5007866;28;20660;-69
2021/08/10 10:42:46;;;;;;;8.02;5.40;;;;;;;36.98;29.09;101442.56;4988622;28;20660;-69
2021/08/10 10:45:32;;;;;;;8.60;5.35;;;;;;;36.75;28.91;101431.31;4985585;28;20223;-70
2021/08/10 10:47:58;;;;;;;7.93;5.55;;;;;;;36.48;28.73;101415.25;5028385;28;20199;-69
2021/08/10 10:50:23;;;;;;;9.50;5.55;;;;;;;36.76;28.83;101423.41;5010266;28;20190;-70
2021/08/10 10:53:21;;;;;;;8.23;5.00;;;;;;;37.08;29.70;101423.16;5012961;28;20188;-70
2021/08/10 10:55:47;;;;;;;6.65;5.50;;;;;;;37.02;29.46;101414.75;5016170;28;20231;-70
2021/08/10 10:58:33;;;;;;;9.18;5.15;;;;;;;36.90;29.60;101424.56;5016499;28;20273;-69
2021/08/10 11:01:17;;;;;;;6.88;5.22;;;;;;;37.10;29.48;101415.44;5011738;28;20555;-69
2021/08/10 11:04:02;;;;;;;13.57;5.05;;;;;;;37.45;28.14;101424.69;5010818;28;20227;-70
2021/08/10 11:06:32;;;;;;;7.45;5.25;;;;;;;37.44;28.26;101423.19;5011554;28;20252;-69
2021/08/10 11:09:03;;;;;;;6.00;4.97;;;;;;;37.28;28.30;101416.91;5013864;28;20706;-68
2021/08/10 11:11:53;;;;;;;7.22;4.93;;;;;;;37.63;28.09;101414.63;5010756;28;20186;-69
2021/08/10 11:14:37;;;;;;;8.10;4.95;;;;;;;38.01;27.52;101415.47;5001676;28;20216;-69
2021/08/10 11:17:11;;;;;;;6.97;4.80;;;;;;;38.24;26.27;101407.09;5016051;28;20212;-69
2021/08/10 11:19:45;;;;;;;6.57;4.85;;;;;;;38.26;26.08;101406.50;5031137;28;20259;-67
2021/08/10 11:22:16;;;;;;;6.82;4.68;;;;;;;38.16;26.63;101397.06;5022604;28;20180;-67
2021/08/10 11:24:51;;;;;;;10.93;4.88;;;;;;;38.05;25.49;101404.22;5029867;28;20181;-68